sensor_id;sensor_type;location;lat;lon;timestamp;P1;durP1;ratioP1;P2;durP2;ratioP2
21140;SDS011;10728;53.284;10.314;2022-07-12T00:01:56;2.22;;;1.83;;
21140;SDS011;10728;53.284;10.314;2022-07-12T00:04:22;2.73;;;1.80;;
21140;SDS011;10728;53.284;10.314;2022-07-12T00:06:47;1.97;;;1.87;;
21140;SDS011;10728;53.284;10.314;2022-07-12T00:09:13;4.33;;;2.23;;
21140;SDS011;10728;53.284;10.314;2022-07-12T00:11:38;2.55;;;2.22;;
21140;SDS011;10728;53.284;10.314;2022-07-12T00:14:04;1.83;;;1.73;;
21140;SDS011;10728;53.284;10.314;2022-07-12T00:16:30;3.70;;;2.40;;
21140;SDS011;10728;53.284;10.314;2022-07-12T00:18:55;3.83;;;2.60;;
21140;SDS011;10728;53.284;10.314;2022-07-12T00:21:21;3.87;;;2.50;;
21140;SDS011;10728;53.284;10.314;2022-07-12T00:23:47;3.33;;;2.50;;
21140;SDS011;10728;53.284;10.314;2022-07-12T00:26:12;3.97;;;2.83;;
21140;SDS011;10728;53.284;10.314;2022-07-12T00:28:38;2.60;;;2.40;;
21140;SDS011;10728;53.284;10.314;2022-07-12T00:31:03;3.42;;;2.72;;
21140;SDS011;10728;53.284;10.314;2022-07-12T00:33:29;4.07;;;2.60;;
21140;SDS011;10728;53.284;10.314;2022-07-12T00:35:55;5.70;;;3.37;;
21140;SDS011;10728;53.284;10.314;2022-07-12T00:38:20;4.20;;;3.13;;
21140;SDS011;10728;53.284;10.314;2022-07-12T00:40:46;4.53;;;3.40;;
21140;SDS011;10728;53.284;10.314;2022-07-12T00:43:12;3.30;;;2.93;;
21140;SDS011;10728;53.284;10.314;2022-07-12T00:45:37;6.50;;;3.30;;
21140;SDS011;10728;53.284;10.314;2022-07-12T00:48:03;5.87;;;3.73;;
21140;SDS011;10728;53.284;10.314;2022-07-12T00:50:29;4.70;;;3.40;;
21140;SDS011;10728;53.284;10.314;2022-07-12T00:52:54;3.93;;;3.20;;
21140;SDS011;10728;53.284;10.314;2022-07-12T00:55:21;4.43;;;3.60;;
21140;SDS011;10728;53.284;10.314;2022-07-12T00:57:48;3.70;;;2.90;;
21140;SDS011;10728;53.284;10.314;2022-07-12T01:00:17;6.17;;;3.60;;
21140;SDS011;10728;53.284;10.314;2022-07-12T01:02:47;4.43;;;3.13;;
21140;SDS011;10728;53.284;10.314;2022-07-12T01:05:14;2.77;;;2.57;;
21140;SDS011;10728;53.284;10.314;2022-07-12T01:07:39;4.23;;;3.00;;
21140;SDS011;10728;53.284;10.314;2022-07-12T01:10:06;5.03;;;3.60;;
21140;SDS011;10728;53.284;10.314;2022-07-12T01:12:32;3.93;;;3.40;;
21140;SDS011;10728;53.284;10.314;2022-07-12T01:14:59;4.50;;;3.17;;
21140;SDS011;10728;53.284;10.314;2022-07-12T01:17:25;5.37;;;3.10;;
21140;SDS011;10728;53.284;10.314;2022-07-12T01:19:52;4.63;;;2.83;;
21140;SDS011;10728;53.284;10.314;2022-07-12T01:22:25;3.73;;;2.73;;
21140;SDS011;10728;53.284;10.314;2022-07-12T01:24:53;2.80;;;2.60;;
21140;SDS011;10728;53.284;10.314;2022-07-12T01:27:18;5.53;;;3.10;;
21140;SDS011;10728;53.284;10.314;2022-07-12T01:29:44;4.07;;;3.27;;
21140;SDS011;10728;53.284;10.314;2022-07-12T01:32:09;3.40;;;3.10;;
21140;SDS011;10728;53.284;10.314;2022-07-12T01:37:19;5.40;;;3.60;;
21140;SDS011;10728;53.284;10.314;2022-07-12T01:39:46;3.60;;;3.00;;
21140;SDS011;10728;53.284;10.314;2022-07-12T01:42:13;4.70;;;3.20;;
21140;SDS011;10728;53.284;10.314;2022-07-12T01:44:39;3.87;;;2.70;;
21140;SDS011;10728;53.284;10.314;2022-07-12T01:47:05;4.57;;;3.57;;
21140;SDS011;10728;53.284;10.314;2022-07-12T01:49:30;4.07;;;3.07;;
21140;SDS011;10728;53.284;10.314;2022-07-12T01:51:56;4.07;;;3.20;;
21140;SDS011;10728;53.284;10.314;2022-07-12T01:54:23;3.13;;;2.80;;
21140;SDS011;10728;53.284;10.314;2022-07-12T01:56:49;4.17;;;3.23;;
21140;SDS011;10728;53.284;10.314;2022-07-12T01:59:15;4.03;;;3.37;;
21140;SDS011;10728;53.284;10.314;2022-07-12T02:01:40;2.87;;;2.67;;
21140;SDS011;10728;53.284;10.314;2022-07-12T02:04:06;3.83;;;3.40;;
21140;SDS011;10728;53.284;10.314;2022-07-12T02:06:32;3.37;;;2.53;;
21140;SDS011;10728;53.284;10.314;2022-07-12T02:08:58;3.93;;;3.20;;
21140;SDS011;10728;53.284;10.314;2022-07-12T02:11:24;3.30;;;3.00;;
21140;SDS011;10728;53.284;10.314;2022-07-12T02:13:49;4.60;;;3.20;;
21140;SDS011;10728;53.284;10.314;2022-07-12T02:16:15;3.07;;;2.73;;
21140;SDS011;10728;53.284;10.314;2022-07-12T02:18:41;7.23;;;3.40;;
21140;SDS011;10728;53.284;10.314;2022-07-12T02:21:06;4.33;;;3.57;;
21140;SDS011;10728;53.284;10.314;2022-07-12T02:23:32;3.63;;;3.30;;
21140;SDS011;10728;53.284;10.314;2022-07-12T02:25:57;6.17;;;3.13;;
21140;SDS011;10728;53.284;10.314;2022-07-12T02:28:23;4.23;;;3.47;;
21140;SDS011;10728;53.284;10.314;2022-07-12T02:30:48;4.43;;;3.70;;
21140;SDS011;10728;53.284;10.314;2022-07-12T02:33:14;3.83;;;3.47;;
21140;SDS011;10728;53.284;10.314;2022-07-12T02:35:45;6.33;;;4.30;;
21140;SDS011;10728;53.284;10.314;2022-07-12T02:38:11;4.43;;;3.73;;
21140;SDS011;10728;53.284;10.314;2022-07-12T02:40:37;4.80;;;3.60;;
21140;SDS011;10728;53.284;10.314;2022-07-12T02:43:24;5.20;;;4.07;;
21140;SDS011;10728;53.284;10.314;2022-07-12T02:45:51;4.90;;;3.67;;
21140;SDS011;10728;53.284;10.314;2022-07-12T02:48:18;6.23;;;4.13;;
21140;SDS011;10728;53.284;10.314;2022-07-12T02:50:44;7.10;;;4.13;;
21140;SDS011;10728;53.284;10.314;2022-07-12T02:53:10;6.07;;;4.33;;
21140;SDS011;10728;53.284;10.314;2022-07-12T02:55:36;6.53;;;4.53;;
21140;SDS011;10728;53.284;10.314;2022-07-12T02:58:02;3.97;;;3.60;;
21140;SDS011;10728;53.284;10.314;2022-07-12T03:00:28;4.10;;;3.70;;
21140;SDS011;10728;53.284;10.314;2022-07-12T03:02:54;3.90;;;3.50;;
21140;SDS011;10728;53.284;10.314;2022-07-12T03:05:20;5.47;;;3.93;;
21140;SDS011;10728;53.284;10.314;2022-07-12T03:07:45;5.10;;;3.63;;
21140;SDS011;10728;53.284;10.314;2022-07-12T03:10:11;5.17;;;3.63;;
21140;SDS011;10728;53.284;10.314;2022-07-12T03:12:37;4.47;;;4.00;;
21140;SDS011;10728;53.284;10.314;2022-07-12T03:15:03;5.07;;;3.77;;
21140;SDS011;10728;53.284;10.314;2022-07-12T03:17:29;6.93;;;4.47;;
21140;SDS011;10728;53.284;10.314;2022-07-12T03:19:55;4.73;;;4.00;;
21140;SDS011;10728;53.284;10.314;2022-07-12T03:22:20;5.00;;;3.90;;
21140;SDS011;10728;53.284;10.314;2022-07-12T03:24:46;4.70;;;3.63;;
21140;SDS011;10728;53.284;10.314;2022-07-12T03:27:11;4.90;;;3.67;;
21140;SDS011;10728;53.284;10.314;2022-07-12T03:29:37;4.10;;;3.70;;
21140;SDS011;10728;53.284;10.314;2022-07-12T03:32:05;5.20;;;4.57;;
21140;SDS011;10728;53.284;10.314;2022-07-12T03:34:31;7.80;;;4.83;;
21140;SDS011;10728;53.284;10.314;2022-07-12T03:36:57;7.83;;;5.80;;
21140;SDS011;10728;53.284;10.314;2022-07-12T03:39:22;6.70;;;4.90;;
21140;SDS011;10728;53.284;10.314;2022-07-12T03:41:48;7.13;;;5.47;;
21140;SDS011;10728;53.284;10.314;2022-07-12T03:44:14;6.10;;;5.00;;
21140;SDS011;10728;53.284;10.314;2022-07-12T03:46:39;6.50;;;4.93;;
21140;SDS011;10728;53.284;10.314;2022-07-12T03:49:05;5.70;;;4.80;;
21140;SDS011;10728;53.284;10.314;2022-07-12T03:51:30;7.00;;;4.93;;
21140;SDS011;10728;53.284;10.314;2022-07-12T03:53:56;5.67;;;4.07;;
21140;SDS011;10728;53.284;10.314;2022-07-12T03:56:21;7.30;;;4.73;;
21140;SDS011;10728;53.284;10.314;2022-07-12T03:59:06;5.70;;;4.43;;
21140;SDS011;10728;53.284;10.314;2022-07-12T04:01:31;5.80;;;4.77;;
21140;SDS011;10728;53.284;10.314;2022-07-12T04:03:58;8.07;;;5.77;;
21140;SDS011;10728;53.284;10.314;2022-07-12T04:06:23;7.90;;;5.07;;
21140;SDS011;10728;53.284;10.314;2022-07-12T04:08:49;8.03;;;5.80;;
21140;SDS011;10728;53.284;10.314;2022-07-12T04:11:15;9.63;;;5.40;;
21140;SDS011;10728;53.284;10.314;2022-07-12T04:13:40;8.30;;;5.90;;
21140;SDS011;10728;53.284;10.314;2022-07-12T04:16:06;7.13;;;6.20;;
21140;SDS011;10728;53.284;10.314;2022-07-12T04:18:32;9.37;;;6.33;;
21140;SDS011;10728;53.284;10.314;2022-07-12T04:20:57;8.43;;;6.03;;
21140;SDS011;10728;53.284;10.314;2022-07-12T04:23:23;6.90;;;5.33;;
21140;SDS011;10728;53.284;10.314;2022-07-12T04:25:49;8.60;;;6.00;;
21140;SDS011;10728;53.284;10.314;2022-07-12T04:28:15;8.23;;;5.80;;
21140;SDS011;10728;53.284;10.314;2022-07-12T04:30:40;10.40;;;6.37;;
21140;SDS011;10728;53.284;10.314;2022-07-12T04:33:07;7.53;;;6.70;;
21140;SDS011;10728;53.284;10.314;2022-07-12T04:35:33;9.10;;;6.53;;
21140;SDS011;10728;53.284;10.314;2022-07-12T04:37:59;6.43;;;5.17;;
21140;SDS011;10728;53.284;10.314;2022-07-12T04:40:24;4.33;;;3.93;;
21140;SDS011;10728;53.284;10.314;2022-07-12T04:42:50;3.60;;;3.30;;
21140;SDS011;10728;53.284;10.314;2022-07-12T04:45:15;6.57;;;5.23;;
21140;SDS011;10728;53.284;10.314;2022-07-12T04:47:41;8.53;;;5.60;;
21140;SDS011;10728;53.284;10.314;2022-07-12T04:50:07;6.70;;;5.30;;
21140;SDS011;10728;53.284;10.314;2022-07-12T04:52:33;8.73;;;6.10;;
21140;SDS011;10728;53.284;10.314;2022-07-12T04:54:59;8.83;;;5.53;;
21140;SDS011;10728;53.284;10.314;2022-07-12T04:57:24;6.63;;;5.17;;
21140;SDS011;10728;53.284;10.314;2022-07-12T04:59:50;10.03;;;6.20;;
21140;SDS011;10728;53.284;10.314;2022-07-12T05:02:16;6.68;;;5.47;;
21140;SDS011;10728;53.284;10.314;2022-07-12T05:04:41;5.47;;;4.93;;
21140;SDS011;10728;53.284;10.314;2022-07-12T05:07:07;6.43;;;4.72;;
21140;SDS011;10728;53.284;10.314;2022-07-12T05:09:32;4.57;;;3.80;;
21140;SDS011;10728;53.284;10.314;2022-07-12T05:11:58;4.55;;;3.13;;
21140;SDS011;10728;53.284;10.314;2022-07-12T05:14:23;4.18;;;3.15;;
21140;SDS011;10728;53.284;10.314;2022-07-12T05:16:49;4.35;;;3.17;;
21140;SDS011;10728;53.284;10.314;2022-07-12T05:19:15;3.28;;;2.97;;
21140;SDS011;10728;53.284;10.314;2022-07-12T05:21:41;3.38;;;3.08;;
21140;SDS011;10728;53.284;10.314;2022-07-12T05:24:07;3.88;;;3.42;;
21140;SDS011;10728;53.284;10.314;2022-07-12T05:26:33;3.53;;;2.90;;
21140;SDS011;10728;53.284;10.314;2022-07-12T05:28:58;5.15;;;2.70;;
21140;SDS011;10728;53.284;10.314;2022-07-12T05:31:24;2.75;;;2.33;;
21140;SDS011;10728;53.284;10.314;2022-07-12T05:33:50;2.92;;;2.55;;
21140;SDS011;10728;53.284;10.314;2022-07-12T05:36:16;3.22;;;2.42;;
21140;SDS011;10728;53.284;10.314;2022-07-12T05:38:42;5.43;;;2.13;;
21140;SDS011;10728;53.284;10.314;2022-07-12T05:41:07;1.98;;;1.70;;
21140;SDS011;10728;53.284;10.314;2022-07-12T05:43:36;2.60;;;2.00;;
21140;SDS011;10728;53.284;10.314;2022-07-12T05:46:05;2.13;;;1.98;;
21140;SDS011;10728;53.284;10.314;2022-07-12T05:48:30;1.85;;;1.65;;
21140;SDS011;10728;53.284;10.314;2022-07-12T05:50:56;2.33;;;2.10;;
21140;SDS011;10728;53.284;10.314;2022-07-12T05:53:44;2.35;;;1.90;;
21140;SDS011;10728;53.284;10.314;2022-07-12T05:56:10;5.13;;;2.10;;
21140;SDS011;10728;53.284;10.314;2022-07-12T05:58:35;3.35;;;2.58;;
21140;SDS011;10728;53.284;10.314;2022-07-12T06:01:01;2.95;;;1.77;;
21140;SDS011;10728;53.284;10.314;2022-07-12T06:03:26;1.77;;;1.60;;
21140;SDS011;10728;53.284;10.314;2022-07-12T06:05:52;2.75;;;1.60;;
21140;SDS011;10728;53.284;10.314;2022-07-12T06:08:17;3.20;;;1.58;;
21140;SDS011;10728;53.284;10.314;2022-07-12T06:10:43;2.80;;;1.90;;
21140;SDS011;10728;53.284;10.314;2022-07-12T06:13:08;2.65;;;1.63;;
21140;SDS011;10728;53.284;10.314;2022-07-12T06:15:35;4.03;;;1.75;;
21140;SDS011;10728;53.284;10.314;2022-07-12T06:18:01;3.83;;;1.60;;
21140;SDS011;10728;53.284;10.314;2022-07-12T06:20:27;2.75;;;1.48;;
21140;SDS011;10728;53.284;10.314;2022-07-12T06:22:53;4.07;;;1.92;;
21140;SDS011;10728;53.284;10.314;2022-07-12T06:25:18;3.25;;;1.95;;
21140;SDS011;10728;53.284;10.314;2022-07-12T06:27:44;4.53;;;1.92;;
21140;SDS011;10728;53.284;10.314;2022-07-12T06:30:10;2.42;;;1.92;;
21140;SDS011;10728;53.284;10.314;2022-07-12T06:32:36;1.98;;;1.75;;
21140;SDS011;10728;53.284;10.314;2022-07-12T06:35:01;2.65;;;1.83;;
21140;SDS011;10728;53.284;10.314;2022-07-12T06:37:27;1.98;;;1.50;;
21140;SDS011;10728;53.284;10.314;2022-07-12T06:39:53;1.63;;;1.52;;
21140;SDS011;10728;53.284;10.314;2022-07-12T06:42:18;2.28;;;1.80;;
21140;SDS011;10728;53.284;10.314;2022-07-12T06:44:52;2.03;;;1.80;;
21140;SDS011;10728;53.284;10.314;2022-07-12T06:47:17;2.40;;;1.90;;
21140;SDS011;10728;53.284;10.314;2022-07-12T06:49:43;2.75;;;2.03;;
21140;SDS011;10728;53.284;10.314;2022-07-12T06:52:08;1.65;;;1.55;;
21140;SDS011;10728;53.284;10.314;2022-07-12T06:54:34;2.13;;;1.63;;
21140;SDS011;10728;53.284;10.314;2022-07-12T06:56:59;3.35;;;1.88;;
21140;SDS011;10728;53.284;10.314;2022-07-12T06:59:25;3.50;;;1.73;;
21140;SDS011;10728;53.284;10.314;2022-07-12T07:01:51;3.00;;;1.70;;
21140;SDS011;10728;53.284;10.314;2022-07-12T07:04:17;3.33;;;1.77;;
21140;SDS011;10728;53.284;10.314;2022-07-12T07:06:43;1.52;;;1.42;;
21140;SDS011;10728;53.284;10.314;2022-07-12T07:09:08;3.08;;;1.73;;
21140;SDS011;10728;53.284;10.314;2022-07-12T07:11:37;3.33;;;1.90;;
21140;SDS011;10728;53.284;10.314;2022-07-12T07:14:03;1.50;;;1.40;;
21140;SDS011;10728;53.284;10.314;2022-07-12T07:16:28;4.22;;;1.98;;
21140;SDS011;10728;53.284;10.314;2022-07-12T07:18:54;1.98;;;1.42;;
21140;SDS011;10728;53.284;10.314;2022-07-12T07:21:20;2.38;;;1.85;;
21140;SDS011;10728;53.284;10.314;2022-07-12T07:23:45;3.10;;;1.90;;
21140;SDS011;10728;53.284;10.314;2022-07-12T07:26:11;2.78;;;1.70;;
21140;SDS011;10728;53.284;10.314;2022-07-12T07:28:37;2.28;;;1.70;;
21140;SDS011;10728;53.284;10.314;2022-07-12T07:31:22;5.53;;;1.70;;
21140;SDS011;10728;53.284;10.314;2022-07-12T07:33:48;2.67;;;1.50;;
21140;SDS011;10728;53.284;10.314;2022-07-12T07:36:13;1.70;;;1.60;;
21140;SDS011;10728;53.284;10.314;2022-07-12T07:38:39;2.35;;;2.05;;
21140;SDS011;10728;53.284;10.314;2022-07-12T07:41:05;3.65;;;2.10;;
21140;SDS011;10728;53.284;10.314;2022-07-12T07:43:30;2.80;;;2.00;;
21140;SDS011;10728;53.284;10.314;2022-07-12T07:45:56;2.88;;;1.63;;
21140;SDS011;10728;53.284;10.314;2022-07-12T07:48:21;2.00;;;1.83;;
21140;SDS011;10728;53.284;10.314;2022-07-12T07:50:47;2.92;;;1.90;;
21140;SDS011;10728;53.284;10.314;2022-07-12T07:53:12;2.45;;;1.98;;
21140;SDS011;10728;53.284;10.314;2022-07-12T07:55:39;2.00;;;1.80;;
21140;SDS011;10728;53.284;10.314;2022-07-12T07:58:05;1.80;;;1.70;;
21140;SDS011;10728;53.284;10.314;2022-07-12T08:00:31;4.38;;;1.60;;
21140;SDS011;10728;53.284;10.314;2022-07-12T08:02:56;1.80;;;1.70;;
21140;SDS011;10728;53.284;10.314;2022-07-12T08:05:22;3.80;;;2.40;;
21140;SDS011;10728;53.284;10.314;2022-07-12T08:07:48;2.58;;;2.10;;
21140;SDS011;10728;53.284;10.314;2022-07-12T08:10:13;2.47;;;1.55;;
21140;SDS011;10728;53.284;10.314;2022-07-12T08:12:39;1.85;;;1.70;;
21140;SDS011;10728;53.284;10.314;2022-07-12T08:15:04;2.08;;;1.70;;
21140;SDS011;10728;53.284;10.314;2022-07-12T08:17:31;3.45;;;2.17;;
21140;SDS011;10728;53.284;10.314;2022-07-12T08:19:57;1.98;;;1.75;;
21140;SDS011;10728;53.284;10.314;2022-07-12T08:22:23;2.25;;;1.60;;
21140;SDS011;10728;53.284;10.314;2022-07-12T08:24:48;3.47;;;1.70;;
21140;SDS011;10728;53.284;10.314;2022-07-12T08:27:15;4.93;;;2.15;;
21140;SDS011;10728;53.284;10.314;2022-07-12T08:29:41;1.60;;;1.50;;
21140;SDS011;10728;53.284;10.314;2022-07-12T08:32:06;1.70;;;1.52;;
21140;SDS011;10728;53.284;10.314;2022-07-12T08:34:33;3.90;;;1.50;;
21140;SDS011;10728;53.284;10.314;2022-07-12T08:36:59;2.15;;;1.85;;
21140;SDS011;10728;53.284;10.314;2022-07-12T08:39:24;2.78;;;1.95;;
21140;SDS011;10728;53.284;10.314;2022-07-12T08:41:50;3.65;;;1.90;;
21140;SDS011;10728;53.284;10.314;2022-07-12T08:44:16;2.67;;;1.67;;
21140;SDS011;10728;53.284;10.314;2022-07-12T08:46:41;1.92;;;1.70;;
21140;SDS011;10728;53.284;10.314;2022-07-12T08:49:07;2.00;;;1.80;;
21140;SDS011;10728;53.284;10.314;2022-07-12T08:51:33;2.58;;;1.70;;
21140;SDS011;10728;53.284;10.314;2022-07-12T08:54:05;2.25;;;1.80;;
21140;SDS011;10728;53.284;10.314;2022-07-12T08:56:38;2.10;;;1.60;;
21140;SDS011;10728;53.284;10.314;2022-07-12T08:59:38;2.08;;;1.67;;
21140;SDS011;10728;53.284;10.314;2022-07-12T09:01:57;2.42;;;1.70;;
21140;SDS011;10728;53.284;10.314;2022-07-12T09:04:24;1.48;;;1.38;;
21140;SDS011;10728;53.284;10.314;2022-07-12T09:06:52;2.38;;;1.90;;
21140;SDS011;10728;53.284;10.314;2022-07-12T09:09:31;2.65;;;1.88;;
21140;SDS011;10728;53.284;10.314;2022-07-12T09:11:58;1.88;;;1.75;;
21140;SDS011;10728;53.284;10.314;2022-07-12T09:14:24;4.20;;;2.13;;
21140;SDS011;10728;53.284;10.314;2022-07-12T09:17:04;3.33;;;1.80;;
21140;SDS011;10728;53.284;10.314;2022-07-12T09:19:35;3.72;;;1.90;;
21140;SDS011;10728;53.284;10.314;2022-07-12T09:22:01;3.65;;;1.88;;
21140;SDS011;10728;53.284;10.314;2022-07-12T09:24:28;4.00;;;1.80;;
21140;SDS011;10728;53.284;10.314;2022-07-12T09:26:56;1.75;;;1.65;;
21140;SDS011;10728;53.284;10.314;2022-07-12T09:29:25;1.98;;;1.80;;
21140;SDS011;10728;53.284;10.314;2022-07-12T09:31:51;3.58;;;1.90;;
21140;SDS011;10728;53.284;10.314;2022-07-12T09:34:36;1.90;;;1.80;;
21140;SDS011;10728;53.284;10.314;2022-07-12T09:37:20;2.00;;;1.80;;
21140;SDS011;10728;53.284;10.314;2022-07-12T09:39:46;2.35;;;1.80;;
21140;SDS011;10728;53.284;10.314;2022-07-12T09:42:12;1.92;;;1.60;;
21140;SDS011;10728;53.284;10.314;2022-07-12T09:44:39;4.47;;;1.75;;
21140;SDS011;10728;53.284;10.314;2022-07-12T09:47:09;1.90;;;1.67;;
21140;SDS011;10728;53.284;10.314;2022-07-12T09:49:38;2.08;;;1.80;;
21140;SDS011;10728;53.284;10.314;2022-07-12T09:52:05;2.92;;;1.90;;
21140;SDS011;10728;53.284;10.314;2022-07-12T09:54:31;3.10;;;1.85;;
21140;SDS011;10728;53.284;10.314;2022-07-12T09:57:01;1.77;;;1.52;;
21140;SDS011;10728;53.284;10.314;2022-07-12T09:59:28;1.92;;;1.77;;
21140;SDS011;10728;53.284;10.314;2022-07-12T10:01:54;1.77;;;1.60;;
21140;SDS011;10728;53.284;10.314;2022-07-12T10:04:24;4.28;;;1.98;;
21140;SDS011;10728;53.284;10.314;2022-07-12T10:06:54;1.70;;;1.48;;
21140;SDS011;10728;53.284;10.314;2022-07-12T10:09:20;2.05;;;1.73;;
21140;SDS011;10728;53.284;10.314;2022-07-12T10:11:46;4.35;;;1.83;;
21140;SDS011;10728;53.284;10.314;2022-07-12T10:14:12;3.13;;;1.92;;
21140;SDS011;10728;53.284;10.314;2022-07-12T10:16:38;2.47;;;1.90;;
21140;SDS011;10728;53.284;10.314;2022-07-12T10:19:23;3.70;;;2.20;;
21140;SDS011;10728;53.284;10.314;2022-07-12T10:21:53;2.60;;;2.08;;
21140;SDS011;10728;53.284;10.314;2022-07-12T10:29:38;2.65;;;1.90;;
21140;SDS011;10728;53.284;10.314;2022-07-12T10:32:17;3.15;;;1.90;;
21140;SDS011;10728;53.284;10.314;2022-07-12T10:34:56;2.42;;;1.92;;
21140;SDS011;10728;53.284;10.314;2022-07-12T10:37:26;1.58;;;1.48;;
21140;SDS011;10728;53.284;10.314;2022-07-12T10:42:36;1.75;;;1.65;;
21140;SDS011;10728;53.284;10.314;2022-07-12T10:45:14;2.15;;;1.40;;
21140;SDS011;10728;53.284;10.314;2022-07-12T10:47:55;2.85;;;1.80;;
21140;SDS011;10728;53.284;10.314;2022-07-12T10:56:18;3.40;;;1.40;;
21140;SDS011;10728;53.284;10.314;2022-07-12T10:58:46;4.03;;;1.65;;
21140;SDS011;10728;53.284;10.314;2022-07-12T11:01:22;1.55;;;1.45;;
21140;SDS011;10728;53.284;10.314;2022-07-12T11:03:50;3.10;;;1.30;;
21140;SDS011;10728;53.284;10.314;2022-07-12T11:06:18;1.50;;;1.30;;
21140;SDS011;10728;53.284;10.314;2022-07-12T11:08:58;1.65;;;1.50;;
21140;SDS011;10728;53.284;10.314;2022-07-12T11:11:26;3.30;;;1.50;;
21140;SDS011;10728;53.284;10.314;2022-07-12T11:13:56;1.52;;;1.40;;
21140;SDS011;10728;53.284;10.314;2022-07-12T11:16:23;2.50;;;1.40;;
21140;SDS011;10728;53.284;10.314;2022-07-12T11:18:49;1.60;;;1.40;;
21140;SDS011;10728;53.284;10.314;2022-07-12T11:21:14;1.33;;;1.23;;
21140;SDS011;10728;53.284;10.314;2022-07-12T11:23:41;3.00;;;1.58;;
21140;SDS011;10728;53.284;10.314;2022-07-12T11:26:07;1.42;;;1.33;;
21140;SDS011;10728;53.284;10.314;2022-07-12T11:28:33;1.60;;;1.50;;
21140;SDS011;10728;53.284;10.314;2022-07-12T11:31:13;1.58;;;1.48;;
21140;SDS011;10728;53.284;10.314;2022-07-12T11:33:43;3.85;;;1.63;;
21140;SDS011;10728;53.284;10.314;2022-07-12T11:36:12;1.70;;;1.60;;
21140;SDS011;10728;53.284;10.314;2022-07-12T11:38:39;3.78;;;1.70;;
21140;SDS011;10728;53.284;10.314;2022-07-12T11:41:06;2.05;;;1.50;;
21140;SDS011;10728;53.284;10.314;2022-07-12T11:43:32;1.52;;;1.42;;
21140;SDS011;10728;53.284;10.314;2022-07-12T11:45:59;3.10;;;1.50;;
21140;SDS011;10728;53.284;10.314;2022-07-12T11:48:26;2.67;;;1.40;;
21140;SDS011;10728;53.284;10.314;2022-07-12T11:50:52;3.45;;;1.40;;
21140;SDS011;10728;53.284;10.314;2022-07-12T11:53:19;1.80;;;1.40;;
21140;SDS011;10728;53.284;10.314;2022-07-12T11:55:56;1.98;;;1.77;;
21140;SDS011;10728;53.284;10.314;2022-07-12T11:58:23;2.40;;;1.70;;
21140;SDS011;10728;53.284;10.314;2022-07-12T12:00:51;2.22;;;1.50;;
21140;SDS011;10728;53.284;10.314;2022-07-12T12:03:17;4.20;;;1.30;;
21140;SDS011;10728;53.284;10.314;2022-07-12T12:05:47;3.50;;;1.70;;
21140;SDS011;10728;53.284;10.314;2022-07-12T12:08:16;2.72;;;1.85;;
21140;SDS011;10728;53.284;10.314;2022-07-12T12:10:51;2.17;;;1.80;;
21140;SDS011;10728;53.284;10.314;2022-07-12T12:13:19;1.50;;;1.40;;
21140;SDS011;10728;53.284;10.314;2022-07-12T12:15:49;1.88;;;1.63;;
21140;SDS011;10728;53.284;10.314;2022-07-12T12:18:16;1.40;;;1.30;;
21140;SDS011;10728;53.284;10.314;2022-07-12T12:20:42;1.85;;;1.42;;
21140;SDS011;10728;53.284;10.314;2022-07-12T12:23:14;1.75;;;1.55;;
21140;SDS011;10728;53.284;10.314;2022-07-12T12:25:41;3.20;;;1.77;;
21140;SDS011;10728;53.284;10.314;2022-07-12T12:28:07;1.73;;;1.50;;
21140;SDS011;10728;53.284;10.314;2022-07-12T12:30:33;2.17;;;1.50;;
21140;SDS011;10728;53.284;10.314;2022-07-12T12:33:01;2.30;;;2.05;;
21140;SDS011;10728;53.284;10.314;2022-07-12T12:35:38;3.28;;;1.90;;
21140;SDS011;10728;53.284;10.314;2022-07-12T12:38:11;1.70;;;1.60;;
21140;SDS011;10728;53.284;10.314;2022-07-12T12:40:38;1.98;;;1.77;;
21140;SDS011;10728;53.284;10.314;2022-07-12T12:43:05;2.55;;;1.80;;
21140;SDS011;10728;53.284;10.314;2022-07-12T12:45:32;1.80;;;1.70;;
21140;SDS011;10728;53.284;10.314;2022-07-12T12:47:59;2.08;;;1.98;;
21140;SDS011;10728;53.284;10.314;2022-07-12T12:50:37;2.05;;;1.85;;
21140;SDS011;10728;53.284;10.314;2022-07-12T12:53:14;1.95;;;1.85;;
21140;SDS011;10728;53.284;10.314;2022-07-12T12:55:49;1.75;;;1.65;;
21140;SDS011;10728;53.284;10.314;2022-07-12T12:58:16;3.22;;;1.58;;
21140;SDS011;10728;53.284;10.314;2022-07-12T13:00:44;2.05;;;1.88;;
21140;SDS011;10728;53.284;10.314;2022-07-12T13:03:12;1.98;;;1.83;;
21140;SDS011;10728;53.284;10.314;2022-07-12T13:05:38;1.60;;;1.50;;
21140;SDS011;10728;53.284;10.314;2022-07-12T13:08:05;1.85;;;1.23;;
21140;SDS011;10728;53.284;10.314;2022-07-12T13:10:32;2.35;;;1.30;;
21140;SDS011;10728;53.284;10.314;2022-07-12T13:12:58;1.40;;;1.30;;
21140;SDS011;10728;53.284;10.314;2022-07-12T13:15:24;3.03;;;1.35;;
21140;SDS011;10728;53.284;10.314;2022-07-12T13:17:50;1.17;;;0.90;;
21140;SDS011;10728;53.284;10.314;2022-07-12T13:20:16;2.15;;;1.30;;
21140;SDS011;10728;53.284;10.314;2022-07-12T13:22:42;1.80;;;1.40;;
21140;SDS011;10728;53.284;10.314;2022-07-12T13:25:08;2.40;;;1.27;;
21140;SDS011;10728;53.284;10.314;2022-07-12T13:27:35;1.90;;;1.38;;
21140;SDS011;10728;53.284;10.314;2022-07-12T13:30:00;2.30;;;1.10;;
21140;SDS011;10728;53.284;10.314;2022-07-12T13:32:26;1.98;;;0.80;;
21140;SDS011;10728;53.284;10.314;2022-07-12T13:34:51;3.10;;;1.00;;
21140;SDS011;10728;53.284;10.314;2022-07-12T13:37:17;1.95;;;0.90;;
21140;SDS011;10728;53.284;10.314;2022-07-12T13:39:42;4.28;;;0.70;;
21140;SDS011;10728;53.284;10.314;2022-07-12T13:42:26;2.45;;;0.60;;
21140;SDS011;10728;53.284;10.314;2022-07-12T13:44:52;1.25;;;0.80;;
21140;SDS011;10728;53.284;10.314;2022-07-12T13:47:19;1.67;;;0.80;;
21140;SDS011;10728;53.284;10.314;2022-07-12T13:49:46;1.92;;;0.70;;
21140;SDS011;10728;53.284;10.314;2022-07-12T13:52:12;2.70;;;0.70;;
21140;SDS011;10728;53.284;10.314;2022-07-12T13:54:38;1.20;;;0.80;;
21140;SDS011;10728;53.284;10.314;2022-07-12T13:57:03;0.98;;;0.70;;
21140;SDS011;10728;53.284;10.314;2022-07-12T13:59:29;2.85;;;0.90;;
21140;SDS011;10728;53.284;10.314;2022-07-12T14:01:55;1.75;;;0.70;;
21140;SDS011;10728;53.284;10.314;2022-07-12T14:04:21;1.63;;;0.93;;
21140;SDS011;10728;53.284;10.314;2022-07-12T14:06:46;1.17;;;0.70;;
21140;SDS011;10728;53.284;10.314;2022-07-12T14:09:15;1.40;;;0.85;;
21140;SDS011;10728;53.284;10.314;2022-07-12T14:11:40;2.50;;;0.90;;
21140;SDS011;10728;53.284;10.314;2022-07-12T14:14:06;3.08;;;0.82;;
21140;SDS011;10728;53.284;10.314;2022-07-12T14:16:32;1.13;;;0.90;;
21140;SDS011;10728;53.284;10.314;2022-07-12T14:18:58;0.95;;;0.80;;
21140;SDS011;10728;53.284;10.314;2022-07-12T14:21:25;1.45;;;0.95;;
21140;SDS011;10728;53.284;10.314;2022-07-12T14:23:52;0.93;;;0.80;;
21140;SDS011;10728;53.284;10.314;2022-07-12T14:26:18;3.10;;;0.93;;
21140;SDS011;10728;53.284;10.314;2022-07-12T14:28:44;2.97;;;0.90;;
21140;SDS011;10728;53.284;10.314;2022-07-12T14:31:10;1.45;;;0.90;;
21140;SDS011;10728;53.284;10.314;2022-07-12T14:33:35;9.02;;;1.10;;
21140;SDS011;10728;53.284;10.314;2022-07-12T14:36:01;2.63;;;1.08;;
21140;SDS011;10728;53.284;10.314;2022-07-12T14:38:26;1.33;;;1.00;;
21140;SDS011;10728;53.284;10.314;2022-07-12T14:40:52;1.23;;;1.08;;
21140;SDS011;10728;53.284;10.314;2022-07-12T14:43:18;0.98;;;0.90;;
21140;SDS011;10728;53.284;10.314;2022-07-12T14:45:45;1.52;;;1.00;;
21140;SDS011;10728;53.284;10.314;2022-07-12T14:48:11;1.20;;;1.10;;
21140;SDS011;10728;53.284;10.314;2022-07-12T14:50:37;1.40;;;1.10;;